sensor_id;sensor_type;location;lat;lon;timestamp;P1;durP1;ratioP1;P2;durP2;ratioP2
21266;SDS011;10791;53.108;18.326;2023-06-05T00:02:06;4.13;;;1.57;;
21266;SDS011;10791;53.108;18.326;2023-06-05T00:07:10;2.77;;;1.83;;
21266;SDS011;10791;53.108;18.326;2023-06-05T00:12:13;3.83;;;1.90;;
21266;SDS011;10791;53.108;18.326;2023-06-05T00:17:17;5.53;;;2.47;;
21266;SDS011;10791;53.108;18.326;2023-06-05T00:22:22;7.10;;;2.40;;
21266;SDS011;10791;53.108;18.326;2023-06-05T00:27:25;5.70;;;2.47;;
21266;SDS011;10791;53.108;18.326;2023-06-05T00:32:28;3.67;;;2.00;;
21266;SDS011;10791;53.108;18.326;2023-06-05T00:37:31;5.67;;;2.43;;
21266;SDS011;10791;53.108;18.326;2023-06-05T00:42:36;7.77;;;2.90;;
21266;SDS011;10791;53.108;18.326;2023-06-05T00:47:39;4.27;;;2.47;;
21266;SDS011;10791;53.108;18.326;2023-06-05T00:52:43;6.00;;;2.93;;
21266;SDS011;10791;53.108;18.326;2023-06-05T00:57:48;6.57;;;3.13;;
21266;SDS011;10791;53.108;18.326;2023-06-05T01:02:52;5.60;;;2.60;;
21266;SDS011;10791;53.108;18.326;2023-06-05T01:07:56;6.03;;;2.63;;
21266;SDS011;10791;53.108;18.326;2023-06-05T01:13:19;3.50;;;2.13;;
21266;SDS011;10791;53.108;18.326;2023-06-05T01:18:27;5.47;;;2.50;;
21266;SDS011;10791;53.108;18.326;2023-06-05T01:23:33;5.57;;;2.00;;
21266;SDS011;10791;53.108;18.326;2023-06-05T01:28:37;3.83;;;1.97;;
21266;SDS011;10791;53.108;18.326;2023-06-05T01:33:44;3.27;;;2.00;;
21266;SDS011;10791;53.108;18.326;2023-06-05T01:38:59;4.00;;;2.00;;
21266;SDS011;10791;53.108;18.326;2023-06-05T01:44:04;5.27;;;2.03;;
21266;SDS011;10791;53.108;18.326;2023-06-05T01:49:10;5.87;;;2.50;;
21266;SDS011;10791;53.108;18.326;2023-06-05T01:54:14;5.90;;;2.90;;
21266;SDS011;10791;53.108;18.326;2023-06-05T01:59:18;8.20;;;2.93;;
21266;SDS011;10791;53.108;18.326;2023-06-05T02:04:22;7.27;;;2.90;;
21266;SDS011;10791;53.108;18.326;2023-06-05T02:09:26;4.47;;;2.47;;
21266;SDS011;10791;53.108;18.326;2023-06-05T02:14:30;6.80;;;2.70;;
21266;SDS011;10791;53.108;18.326;2023-06-05T02:19:38;8.23;;;2.57;;
21266;SDS011;10791;53.108;18.326;2023-06-05T02:24:42;6.43;;;2.30;;
21266;SDS011;10791;53.108;18.326;2023-06-05T02:29:46;7.50;;;2.17;;
21266;SDS011;10791;53.108;18.326;2023-06-05T02:34:49;5.93;;;2.50;;
21266;SDS011;10791;53.108;18.326;2023-06-05T02:39:52;5.43;;;2.43;;
21266;SDS011;10791;53.108;18.326;2023-06-05T02:44:56;4.00;;;2.50;;
21266;SDS011;10791;53.108;18.326;2023-06-05T02:50:00;5.07;;;2.53;;
21266;SDS011;10791;53.108;18.326;2023-06-05T02:55:04;7.00;;;2.43;;
21266;SDS011;10791;53.108;18.326;2023-06-05T03:00:08;4.43;;;2.33;;
21266;SDS011;10791;53.108;18.326;2023-06-05T03:05:17;8.47;;;2.53;;
21266;SDS011;10791;53.108;18.326;2023-06-05T03:10:29;4.97;;;2.20;;
21266;SDS011;10791;53.108;18.326;2023-06-05T03:15:33;3.73;;;2.47;;
21266;SDS011;10791;53.108;18.326;2023-06-05T03:20:37;9.70;;;2.90;;
21266;SDS011;10791;53.108;18.326;2023-06-05T03:25:41;17.43;;;3.97;;
21266;SDS011;10791;53.108;18.326;2023-06-05T03:30:45;9.37;;;3.07;;
21266;SDS011;10791;53.108;18.326;2023-06-05T03:35:48;7.03;;;2.20;;
21266;SDS011;10791;53.108;18.326;2023-06-05T03:40:52;9.33;;;2.57;;
21266;SDS011;10791;53.108;18.326;2023-06-05T03:45:55;9.87;;;2.07;;
21266;SDS011;10791;53.108;18.326;2023-06-05T03:50:58;3.10;;;1.90;;
21266;SDS011;10791;53.108;18.326;2023-06-05T03:56:03;8.43;;;2.60;;
21266;SDS011;10791;53.108;18.326;2023-06-05T04:01:06;7.23;;;3.70;;
21266;SDS011;10791;53.108;18.326;2023-06-05T04:06:10;8.90;;;4.30;;
21266;SDS011;10791;53.108;18.326;2023-06-05T04:11:13;12.07;;;4.47;;
21266;SDS011;10791;53.108;18.326;2023-06-05T04:16:17;8.30;;;4.10;;
21266;SDS011;10791;53.108;18.326;2023-06-05T04:21:21;14.60;;;3.70;;
21266;SDS011;10791;53.108;18.326;2023-06-05T04:26:24;15.67;;;4.13;;
21266;SDS011;10791;53.108;18.326;2023-06-05T04:31:29;10.33;;;2.83;;
21266;SDS011;10791;53.108;18.326;2023-06-05T04:36:32;7.80;;;2.70;;
21266;SDS011;10791;53.108;18.326;2023-06-05T04:41:37;3.83;;;2.05;;
21266;SDS011;10791;53.108;18.326;2023-06-05T04:46:47;4.68;;;2.15;;
21266;SDS011;10791;53.108;18.326;2023-06-05T04:51:50;5.05;;;2.95;;
21266;SDS011;10791;53.108;18.326;2023-06-05T04:56:55;6.05;;;2.97;;
21266;SDS011;10791;53.108;18.326;2023-06-05T05:01:58;4.63;;;2.70;;
21266;SDS011;10791;53.108;18.326;2023-06-05T05:07:02;8.57;;;3.22;;
21266;SDS011;10791;53.108;18.326;2023-06-05T05:12:06;6.32;;;4.10;;
21266;SDS011;10791;53.108;18.326;2023-06-05T05:17:09;7.55;;;3.83;;
21266;SDS011;10791;53.108;18.326;2023-06-05T05:22:12;5.60;;;3.75;;
21266;SDS011;10791;53.108;18.326;2023-06-05T05:27:15;15.27;;;4.07;;
21266;SDS011;10791;53.108;18.326;2023-06-05T05:32:19;12.48;;;5.03;;
21266;SDS011;10791;53.108;18.326;2023-06-05T05:37:22;12.98;;;5.18;;
21266;SDS011;10791;53.108;18.326;2023-06-05T05:42:26;13.25;;;4.50;;
21266;SDS011;10791;53.108;18.326;2023-06-05T05:47:29;11.48;;;4.88;;
21266;SDS011;10791;53.108;18.326;2023-06-05T05:52:32;13.18;;;4.35;;
21266;SDS011;10791;53.108;18.326;2023-06-05T05:57:35;13.68;;;5.10;;
21266;SDS011;10791;53.108;18.326;2023-06-05T06:02:39;9.15;;;4.53;;
21266;SDS011;10791;53.108;18.326;2023-06-05T06:07:43;8.27;;;4.90;;
21266;SDS011;10791;53.108;18.326;2023-06-05T06:12:47;9.80;;;4.78;;
21266;SDS011;10791;53.108;18.326;2023-06-05T06:17:50;10.73;;;4.88;;
21266;SDS011;10791;53.108;18.326;2023-06-05T06:22:54;9.98;;;4.13;;
21266;SDS011;10791;53.108;18.326;2023-06-05T06:28:03;11.68;;;4.10;;
21266;SDS011;10791;53.108;18.326;2023-06-05T06:33:09;8.55;;;5.43;;
21266;SDS011;10791;53.108;18.326;2023-06-05T06:38:13;5.40;;;3.40;;
21266;SDS011;10791;53.108;18.326;2023-06-05T06:43:16;8.30;;;3.33;;
21266;SDS011;10791;53.108;18.326;2023-06-05T06:48:21;8.57;;;2.70;;
21266;SDS011;10791;53.108;18.326;2023-06-05T06:53:24;7.22;;;2.45;;
21266;SDS011;10791;53.108;18.326;2023-06-05T06:58:27;7.10;;;2.75;;
21266;SDS011;10791;53.108;18.326;2023-06-05T07:03:31;7.93;;;3.00;;
21266;SDS011;10791;53.108;18.326;2023-06-05T07:08:34;5.70;;;2.30;;
21266;SDS011;10791;53.108;18.326;2023-06-05T07:13:38;7.80;;;2.65;;
21266;SDS011;10791;53.108;18.326;2023-06-05T07:18:41;7.32;;;2.10;;
21266;SDS011;10791;53.108;18.326;2023-06-05T07:23:47;7.65;;;2.05;;
21266;SDS011;10791;53.108;18.326;2023-06-05T07:28:56;7.30;;;1.90;;
21266;SDS011;10791;53.108;18.326;2023-06-05T07:33:59;5.28;;;2.50;;
21266;SDS011;10791;53.108;18.326;2023-06-05T07:39:02;3.40;;;1.67;;
21266;SDS011;10791;53.108;18.326;2023-06-05T07:44:09;7.78;;;1.88;;
21266;SDS011;10791;53.108;18.326;2023-06-05T07:49:14;3.20;;;1.95;;
21266;SDS011;10791;53.108;18.326;2023-06-05T07:54:22;4.85;;;1.42;;
21266;SDS011;10791;53.108;18.326;2023-06-05T07:59:26;2.08;;;1.25;;
21266;SDS011;10791;53.108;18.326;2023-06-05T08:04:30;4.07;;;1.13;;
21266;SDS011;10791;53.108;18.326;2023-06-05T08:09:36;4.22;;;1.67;;
21266;SDS011;10791;53.108;18.326;2023-06-05T08:14:43;2.28;;;1.40;;
21266;SDS011;10791;53.108;18.326;2023-06-05T08:19:46;3.83;;;1.10;;
21266;SDS011;10791;53.108;18.326;2023-06-05T08:24:50;3.28;;;1.75;;
21266;SDS011;10791;53.108;18.326;2023-06-05T08:29:56;3.97;;;1.40;;
21266;SDS011;10791;53.108;18.326;2023-06-05T08:35:00;2.00;;;1.05;;
21266;SDS011;10791;53.108;18.326;2023-06-05T08:40:03;2.42;;;1.10;;
21266;SDS011;10791;53.108;18.326;2023-06-05T08:45:13;1.73;;;1.02;;
21266;SDS011;10791;53.108;18.326;2023-06-05T08:50:16;4.18;;;1.60;;
21266;SDS011;10791;53.108;18.326;2023-06-05T08:55:20;3.17;;;1.30;;
21266;SDS011;10791;53.108;18.326;2023-06-05T09:00:24;2.65;;;1.02;;
21266;SDS011;10791;53.108;18.326;2023-06-05T09:05:28;2.50;;;1.20;;
21266;SDS011;10791;53.108;18.326;2023-06-05T09:10:32;2.97;;;1.00;;
21266;SDS011;10791;53.108;18.326;2023-06-05T09:15:35;3.55;;;1.17;;
21266;SDS011;10791;53.108;18.326;2023-06-05T09:20:40;2.25;;;1.05;;
21266;SDS011;10791;53.108;18.326;2023-06-05T09:25:48;5.10;;;1.10;;
21266;SDS011;10791;53.108;18.326;2023-06-05T09:30:53;4.53;;;1.30;;
21266;SDS011;10791;53.108;18.326;2023-06-05T09:36:08;3.28;;;1.15;;
21266;SDS011;10791;53.108;18.326;2023-06-05T09:41:16;2.45;;;1.13;;
21266;SDS011;10791;53.108;18.326;2023-06-05T09:46:22;4.10;;;1.00;;
21266;SDS011;10791;53.108;18.326;2023-06-05T09:51:26;2.90;;;1.20;;
21266;SDS011;10791;53.108;18.326;2023-06-05T09:56:29;2.13;;;1.15;;
21266;SDS011;10791;53.108;18.326;2023-06-05T10:01:37;2.13;;;0.95;;
21266;SDS011;10791;53.108;18.326;2023-06-05T10:06:44;5.47;;;1.00;;
21266;SDS011;10791;53.108;18.326;2023-06-05T10:11:50;4.10;;;1.10;;
21266;SDS011;10791;53.108;18.326;2023-06-05T10:16:54;3.08;;;1.17;;
21266;SDS011;10791;53.108;18.326;2023-06-05T10:22:00;6.57;;;1.50;;
21266;SDS011;10791;53.108;18.326;2023-06-05T10:42:51;2.08;;;0.65;;
21266;SDS011;10791;53.108;18.326;2023-06-05T10:47:54;1.70;;;0.95;;
21266;SDS011;10791;53.108;18.326;2023-06-05T10:52:58;2.95;;;1.20;;
21266;SDS011;10791;53.108;18.326;2023-06-05T10:58:05;2.08;;;1.35;;
21266;SDS011;10791;53.108;18.326;2023-06-05T11:03:12;2.50;;;0.95;;
21266;SDS011;10791;53.108;18.326;2023-06-05T11:08:16;2.50;;;1.38;;
21266;SDS011;10791;53.108;18.326;2023-06-05T11:13:20;3.15;;;1.17;;
21266;SDS011;10791;53.108;18.326;2023-06-05T11:18:27;4.13;;;1.30;;
21266;SDS011;10791;53.108;18.326;2023-06-05T11:23:35;3.17;;;1.42;;
21266;SDS011;10791;53.108;18.326;2023-06-05T11:28:39;5.13;;;1.33;;
21266;SDS011;10791;53.108;18.326;2023-06-05T11:33:43;5.18;;;1.10;;
21266;SDS011;10791;53.108;18.326;2023-06-05T11:38:53;1.85;;;1.27;;
21266;SDS011;10791;53.108;18.326;2023-06-05T11:43:59;2.85;;;1.40;;
21266;SDS011;10791;53.108;18.326;2023-06-05T11:49:03;2.92;;;1.17;;
21266;SDS011;10791;53.108;18.326;2023-06-05T11:54:06;4.13;;;1.30;;
21266;SDS011;10791;53.108;18.326;2023-06-05T11:59:17;4.05;;;1.60;;
21266;SDS011;10791;53.108;18.326;2023-06-05T12:04:20;10.35;;;1.60;;
21266;SDS011;10791;53.108;18.326;2023-06-05T12:09:24;4.25;;;1.40;;
21266;SDS011;10791;53.108;18.326;2023-06-05T12:14:30;4.97;;;1.33;;
21266;SDS011;10791;53.108;18.326;2023-06-05T12:19:34;2.45;;;1.35;;
21266;SDS011;10791;53.108;18.326;2023-06-05T12:24:38;4.90;;;1.30;;
21266;SDS011;10791;53.108;18.326;2023-06-05T12:29:52;2.22;;;1.10;;
21266;SDS011;10791;53.108;18.326;2023-06-05T12:34:57;2.25;;;1.40;;
21266;SDS011;10791;53.108;18.326;2023-06-05T12:40:09;2.30;;;1.20;;
21266;SDS011;10791;53.108;18.326;2023-06-05T12:45:14;3.00;;;1.30;;
21266;SDS011;10791;53.108;18.326;2023-06-05T12:50:19;2.97;;;1.25;;
21266;SDS011;10791;53.108;18.326;2023-06-05T12:55:22;4.15;;;1.17;;
21266;SDS011;10791;53.108;18.326;2023-06-05T13:00:25;4.20;;;1.70;;
21266;SDS011;10791;53.108;18.326;2023-06-05T13:05:29;3.88;;;1.40;;
21266;SDS011;10791;53.108;18.326;2023-06-05T13:10:34;6.30;;;1.50;;
21266;SDS011;10791;53.108;18.326;2023-06-05T13:15:37;2.85;;;1.65;;
21266;SDS011;10791;53.108;18.326;2023-06-05T13:20:41;6.22;;;1.15;;
21266;SDS011;10791;53.108;18.326;2023-06-05T13:25:44;2.00;;;1.45;;
21266;SDS011;10791;53.108;18.326;2023-06-05T13:30:48;21.90;;;2.75;;
21266;SDS011;10791;53.108;18.326;2023-06-05T13:35:51;3.88;;;1.35;;
21266;SDS011;10791;53.108;18.326;2023-06-05T13:40:56;2.55;;;1.48;;
21266;SDS011;10791;53.108;18.326;2023-06-05T13:45:59;7.40;;;1.60;;
21266;SDS011;10791;53.108;18.326;2023-06-05T13:51:03;2.28;;;1.08;;
21266;SDS011;10791;53.108;18.326;2023-06-05T13:56:07;3.25;;;1.40;;
21266;SDS011;10791;53.108;18.326;2023-06-05T14:01:11;3.42;;;1.38;;
21266;SDS011;10791;53.108;18.326;2023-06-05T14:06:14;2.67;;;1.30;;
21266;SDS011;10791;53.108;18.326;2023-06-05T14:11:21;2.53;;;1.55;;
21266;SDS011;10791;53.108;18.326;2023-06-05T14:16:25;4.97;;;1.60;;
21266;SDS011;10791;53.108;18.326;2023-06-05T14:21:28;6.38;;;1.80;;
21266;SDS011;10791;53.108;18.326;2023-06-05T14:26:32;3.17;;;1.25;;
21266;SDS011;10791;53.108;18.326;2023-06-05T14:31:35;3.53;;;1.63;;
21266;SDS011;10791;53.108;18.326;2023-06-05T14:36:40;5.35;;;1.63;;
21266;SDS011;10791;53.108;18.326;2023-06-05T14:41:43;4.82;;;1.60;;
21266;SDS011;10791;53.108;18.326;2023-06-05T14:46:47;4.38;;;1.25;;
21266;SDS011;10791;53.108;18.326;2023-06-05T14:51:50;4.15;;;1.92;;
21266;SDS011;10791;53.108;18.326;2023-06-05T14:56:54;4.55;;;2.00;;
21266;SDS011;10791;53.108;18.326;2023-06-05T15:01:57;5.85;;;1.73;;
21266;SDS011;10791;53.108;18.326;2023-06-05T15:07:00;3.22;;;1.48;;
21266;SDS011;10791;53.108;18.326;2023-06-05T15:12:04;11.25;;;2.85;;
21266;SDS011;10791;53.108;18.326;2023-06-05T15:17:08;4.63;;;1.88;;
21266;SDS011;10791;53.108;18.326;2023-06-05T15:22:11;4.15;;;1.60;;
21266;SDS011;10791;53.108;18.326;2023-06-05T15:27:14;5.57;;;1.40;;
21266;SDS011;10791;53.108;18.326;2023-06-05T15:32:17;7.18;;;2.22;;
21266;SDS011;10791;53.108;18.326;2023-06-05T15:37:23;18.85;;;3.25;;
21266;SDS011;10791;53.108;18.326;2023-06-05T15:42:27;7.07;;;1.70;;
21266;SDS011;10791;53.108;18.326;2023-06-05T15:47:34;6.10;;;1.95;;
21266;SDS011;10791;53.108;18.326;2023-06-05T15:52:38;8.52;;;2.10;;
21266;SDS011;10791;53.108;18.326;2023-06-05T15:57:43;5.05;;;1.80;;
21266;SDS011;10791;53.108;18.326;2023-06-05T16:02:48;3.50;;;2.00;;
21266;SDS011;10791;53.108;18.326;2023-06-05T16:07:51;3.85;;;1.40;;
21266;SDS011;10791;53.108;18.326;2023-06-05T16:12:54;4.35;;;1.90;;
21266;SDS011;10791;53.108;18.326;2023-06-05T16:17:58;3.25;;;1.60;;
21266;SDS011;10791;53.108;18.326;2023-06-05T16:23:01;3.97;;;1.65;;
21266;SDS011;10791;53.108;18.326;2023-06-05T16:28:04;6.50;;;1.70;;
21266;SDS011;10791;53.108;18.326;2023-06-05T16:33:08;5.25;;;1.42;;
21266;SDS011;10791;53.108;18.326;2023-06-05T16:38:11;4.63;;;1.60;;
21266;SDS011;10791;53.108;18.326;2023-06-05T16:43:15;3.17;;;1.42;;
21266;SDS011;10791;53.108;18.326;2023-06-05T16:48:18;4.60;;;1.75;;
21266;SDS011;10791;53.108;18.326;2023-06-05T16:53:22;5.40;;;1.55;;
21266;SDS011;10791;53.108;18.326;2023-06-05T16:58:25;2.30;;;1.20;;
21266;SDS011;10791;53.108;18.326;2023-06-05T17:03:28;7.22;;;1.67;;
21266;SDS011;10791;53.108;18.326;2023-06-05T17:08:32;3.88;;;1.70;;
21266;SDS011;10791;53.108;18.326;2023-06-05T17:13:35;4.57;;;1.88;;
21266;SDS011;10791;53.108;18.326;2023-06-05T17:18:39;4.25;;;1.90;;
21266;SDS011;10791;53.108;18.326;2023-06-05T17:23:42;3.00;;;1.60;;
21266;SDS011;10791;53.108;18.326;2023-06-05T17:28:46;7.63;;;2.40;;
21266;SDS011;10791;53.108;18.326;2023-06-05T17:33:50;3.33;;;1.50;;
21266;SDS011;10791;53.108;18.326;2023-06-05T17:38:54;4.60;;;1.77;;
21266;SDS011;10791;53.108;18.326;2023-06-05T17:43:57;4.32;;;1.80;;
21266;SDS011;10791;53.108;18.326;2023-06-05T17:49:01;3.80;;;1.75;;
21266;SDS011;10791;53.108;18.326;2023-06-05T17:54:05;3.75;;;2.20;;
21266;SDS011;10791;53.108;18.326;2023-06-05T17:59:10;8.02;;;1.85;;
21266;SDS011;10791;53.108;18.326;2023-06-05T18:04:15;8.35;;;2.50;;
21266;SDS011;10791;53.108;18.326;2023-06-05T18:09:19;10.77;;;2.58;;
21266;SDS011;10791;53.108;18.326;2023-06-05T18:14:23;5.75;;;2.47;;
21266;SDS011;10791;53.108;18.326;2023-06-05T18:19:26;6.57;;;2.60;;
21266;SDS011;10791;53.108;18.326;2023-06-05T18:24:29;6.18;;;2.75;;
21266;SDS011;10791;53.108;18.326;2023-06-05T18:29:33;4.70;;;2.00;;
21266;SDS011;10791;53.108;18.326;2023-06-05T18:34:37;5.38;;;2.70;;
21266;SDS011;10791;53.108;18.326;2023-06-05T18:39:40;20.90;;;3.67;;
21266;SDS011;10791;53.108;18.326;2023-06-05T18:44:44;16.52;;;6.72;;
21266;SDS011;10791;53.108;18.326;2023-06-05T18:49:48;27.55;;;6.40;;
21266;SDS011;10791;53.108;18.326;2023-06-05T18:54:52;25.85;;;6.00;;
21266;SDS011;10791;53.108;18.326;2023-06-05T18:59:56;15.93;;;5.07;;
21266;SDS011;10791;53.108;18.326;2023-06-05T19:05:00;15.20;;;4.93;;
21266;SDS011;10791;53.108;18.326;2023-06-05T19:10:04;15.55;;;5.55;;
21266;SDS011;10791;53.108;18.326;2023-06-05T19:15:13;10.93;;;4.03;;
21266;SDS011;10791;53.108;18.326;2023-06-05T19:20:17;12.18;;;4.40;;
21266;SDS011;10791;53.108;18.326;2023-06-05T19:25:21;8.85;;;3.60;;
21266;SDS011;10791;53.108;18.326;2023-06-05T19:30:25;13.43;;;3.10;;
21266;SDS011;10791;53.108;18.326;2023-06-05T19:35:31;70.90;;;8.90;;
21266;SDS011;10791;53.108;18.326;2023-06-05T19:40:35;14.63;;;3.40;;
21266;SDS011;10791;53.108;18.326;2023-06-05T19:45:38;24.55;;;6.93;;
21266;SDS011;10791;53.108;18.326;2023-06-05T19:50:41;13.02;;;3.92;;
21266;SDS011;10791;53.108;18.326;2023-06-05T19:55:46;10.30;;;3.50;;
21266;SDS011;10791;53.108;18.326;2023-06-05T20:00:49;14.85;;;4.07;;
21266;SDS011;10791;53.108;18.326;2023-06-05T20:05:53;13.38;;;4.15;;
21266;SDS011;10791;53.108;18.326;2023-06-05T20:10:56;11.73;;;4.95;;
21266;SDS011;10791;53.108;18.326;2023-06-05T20:16:00;29.70;;;5.88;;
21266;SDS011;10791;53.108;18.326;2023-06-05T20:21:03;24.13;;;4.70;;
21266;SDS011;10791;53.108;18.326;2023-06-05T20:26:07;20.45;;;4.18;;
21266;SDS011;10791;53.108;18.326;2023-06-05T20:31:13;13.60;;;3.60;;
21266;SDS011;10791;53.108;18.326;2023-06-05T20:36:16;12.73;;;4.35;;
21266;SDS011;10791;53.108;18.326;2023-06-05T20:41:23;9.90;;;3.83;;
21266;SDS011;10791;53.108;18.326;2023-06-05T20:46:29;14.50;;;4.88;;
21266;SDS011;10791;53.108;18.326;2023-06-05T20:51:33;8.20;;;4.15;;
21266;SDS011;10791;53.108;18.326;2023-06-05T20:56:37;5.90;;;3.63;;
21266;SDS011;10791;53.108;18.326;2023-06-05T21:01:41;13.57;;;4.30;;
21266;SDS011;10791;53.108;18.326;2023-06-05T21:06:44;7.85;;;3.45;;
21266;SDS011;10791;53.108;18.326;2023-06-05T21:11:48;7.40;;;2.97;;
21266;SDS011;10791;53.108;18.326;2023-06-05T21:16:51;14.30;;;4.68;;
21266;SDS011;10791;53.108;18.326;2023-06-05T21:21:55;9.30;;;5.07;;
21266;SDS011;10791;53.108;18.326;2023-06-05T21:26:58;17.80;;;7.10;;
21266;SDS011;10791;53.108;18.326;2023-06-05T21:32:02;17.70;;;6.50;;
21266;SDS011;10791;53.108;18.326;2023-06-05T21:37:05;14.75;;;5.50;;
21266;SDS011;10791;53.108;18.326;2023-06-05T21:42:10;9.48;;;4.30;;
21266;SDS011;10791;53.108;18.326;2023-06-05T21:47:17;9.27;;;4.13;;
21266;SDS011;10791;53.108;18.326;2023-06-05T21:52:21;17.48;;;8.38;;
21266;SDS011;10791;53.108;18.326;2023-06-05T21:57:25;12.93;;;5.73;;
21266;SDS011;10791;53.108;18.326;2023-06-05T22:02:28;12.33;;;6.17;;
21266;SDS011;10791;53.108;18.326;2023-06-05T22:07:32;11.33;;;5.77;;
21266;SDS011;10791;53.108;18.326;2023-06-05T22:12:37;13.00;;;6.00;;
21266;SDS011;10791;53.108;18.326;2023-06-05T22:17:44;17.40;;;7.17;;
21266;SDS011;10791;53.108;18.326;2023-06-05T22:22:50;13.63;;;7.67;;
21266;SDS011;10791;53.108;18.326;2023-06-05T22:27:53;8.83;;;5.70;;
21266;SDS011;10791;53.108;18.326;2023-06-05T22:32:57;17.03;;;5.97;;
21266;SDS011;10791;53.108;18.326;2023-06-05T22:38:01;11.17;;;6.10;;
21266;SDS011;10791;53.108;18.326;2023-06-05T22:43:04;14.80;;;5.90;;
21266;SDS011;10791;53.108;18.326;2023-06-05T22:48:07;10.60;;;5.40;;
21266;SDS011;10791;53.108;18.326;2023-06-05T22:53:10;15.80;;;6.17;;
21266;SDS011;10791;53.108;18.326;2023-06-05T22:58:15;16.20;;;6.67;;
21266;SDS011;10791;53.108;18.326;2023-06-05T23:03:18;14.73;;;7.17;;
21266;SDS011;10791;53.108;18.326;2023-06-05T23:08:22;12.23;;;6.20;;
21266;SDS011;10791;53.108;18.326;2023-06-05T23:13:25;16.00;;;6.50;;
21266;SDS011;10791;53.108;18.326;2023-06-05T23:18:29;19.80;;;7.37;;
21266;SDS011;10791;53.108;18.326;2023-06-05T23:23:32;25.50;;;7.03;;
21266;SDS011;10791;53.108;18.326;2023-06-05T23:28:35;19.13;;;5.57;;
21266;SDS011;10791;53.108;18.326;2023-06-05T23:33:38;18.90;;;5.90;;
21266;SDS011;10791;53.108;18.326;2023-06-05T23:38:42;9.33;;;4.17;;
21266;SDS011;10791;53.108;18.326;2023-06-05T23:43:46;15.63;;;5.07;;
21266;SDS011;10791;53.108;18.326;2023-06-05T23:48:50;13.33;;;4.70;;
21266;SDS011;10791;53.108;18.326;2023-06-05T23:53:54;9.37;;;4.90;;
21266;SDS011;10791;53.108;18.326;2023-06-05T23:58:59;12.50;;;4.50;;
